createdAt,value
2023-02-11T04:40:07.681Z,53.50
2023-02-11T04:50:43.364Z,52.10
2023-02-11T05:01:19.038Z,53.90
2023-02-11T05:11:54.812Z,53.30
2023-02-11T05:22:30.309Z,52.00
2023-02-11T05:33:06.032Z,50.00
2023-02-11T05:43:41.342Z,49.30
2023-02-11T05:54:16.913Z,50.40
2023-02-11T06:04:52.695Z,50.10
2023-02-11T06:15:28.554Z,48.70
2023-02-11T06:26:05.821Z,48.60
2023-02-11T06:36:41.641Z,49.60
2023-02-11T06:47:17.224Z,49.20
2023-02-11T06:57:52.575Z,48.80
2023-02-11T07:08:28.356Z,47.80
2023-02-11T07:19:04.090Z,47.50
2023-02-11T07:29:41.460Z,46.50
2023-02-11T07:40:17.230Z,47.30
2023-02-11T07:50:52.890Z,44.10
2023-02-11T08:01:29.842Z,41.00
2023-02-11T08:12:05.762Z,23.90
2023-02-11T08:22:41.762Z,22.20
2023-02-11T08:33:17.432Z,24.10
2023-02-11T08:43:53.348Z,23.00
2023-02-11T08:54:32.164Z,20.60
2023-02-11T09:05:08.054Z,25.90
2023-02-11T09:15:46.934Z,23.00
2023-02-11T09:26:25.873Z,19.70
2023-02-11T09:37:01.598Z,12.90
2023-02-11T09:47:48.077Z,15.30
2023-02-11T09:58:30.416Z,14.90
2023-02-11T10:09:31.709Z,14.40
2023-02-11T10:20:26.655Z,15.90
2023-02-11T10:31:21.284Z,16.60
2023-02-11T10:42:01.758Z,14.20
2023-02-11T10:52:37.253Z,14.60
2023-02-11T11:03:22.761Z,16.10
2023-02-11T11:14:00.144Z,13.90
2023-02-11T11:24:46.535Z,19.10
2023-02-11T11:35:29.349Z,18.80
2023-02-11T11:46:07.053Z,22.30
2023-02-11T11:56:54.683Z,24.40
2023-02-11T12:07:57.675Z,24.20
2023-02-11T12:19:17.625Z,25.70
2023-02-11T12:30:20.645Z,23.60
2023-02-11T12:41:46.015Z,27.10
2023-02-11T12:52:58.245Z,26.60
2023-02-11T13:03:59.939Z,27.40
2023-02-11T13:14:38.921Z,28.10
2023-02-11T13:25:42.822Z,28.90
2023-02-11T13:36:24.523Z,29.90
2023-02-11T13:47:02.142Z,30.80
2023-02-11T13:57:39.796Z,31.40
2023-02-11T14:08:42.789Z,32.30
2023-02-11T14:19:31.888Z,32.80
2023-02-11T14:30:07.662Z,33.50
2023-02-11T14:40:55.024Z,34.80
2023-02-11T14:51:40.478Z,39.00
2023-02-11T15:02:22.130Z,43.30
2023-02-11T15:12:59.189Z,44.40
2023-02-11T15:23:34.983Z,43.50
2023-02-11T15:34:12.075Z,44.50
2023-02-11T15:44:56.387Z,45.30
2023-02-11T15:55:33.091Z,45.30
2023-02-11T16:06:42.658Z,46.10
2023-02-11T16:17:30.408Z,47.40
2023-02-11T16:28:06.606Z,48.20
2023-02-11T16:38:42.973Z,50.20
2023-02-11T16:49:23.026Z,52.40
2023-02-11T17:00:07.285Z,54.00
2023-02-11T17:10:42.831Z,54.30
2023-02-11T17:21:18.682Z,55.00
2023-02-11T17:31:54.698Z,55.20
2023-02-11T17:42:31.188Z,55.10
2023-02-11T17:53:06.556Z,55.90
2023-02-11T18:03:42.095Z,55.10
2023-02-11T18:14:19.193Z,53.80
2023-02-11T18:24:55.272Z,53.60
2023-02-11T18:35:30.956Z,53.80
2023-02-11T18:46:10.037Z,54.10
2023-02-11T18:56:45.638Z,54.20
2023-02-11T19:07:21.251Z,53.60
2023-02-11T19:17:56.998Z,53.80
2023-02-11T19:28:33.619Z,54.30
2023-02-11T19:39:09.980Z,54.40
2023-02-11T19:49:45.721Z,53.70
2023-02-11T20:00:21.317Z,53.90
2023-02-11T20:10:57.142Z,54.20
2023-02-11T20:21:33.565Z,53.90
2023-02-11T20:32:10.645Z,54.20
2023-02-11T20:42:46.207Z,55.10
2023-02-11T20:53:21.936Z,57.80
2023-02-11T21:04:03.563Z,59.40
2023-02-11T21:14:38.933Z,60.40
2023-02-11T21:25:14.523Z,62.60
2023-02-11T21:35:50.395Z,65.90
2023-02-11T21:46:26.886Z,68.80
2023-02-11T21:57:03.123Z,67.10
2023-02-11T22:07:38.700Z,69.90
2023-02-11T22:18:14.377Z,70.10
2023-02-11T22:28:51.184Z,70.90
